createdAt,value
2023-01-13T00:00:20.225Z,3.13
2023-01-13T00:05:46.990Z,4.90
2023-01-13T00:10:55.186Z,6.53
2023-01-13T00:16:05.040Z,5.18
2023-01-13T00:21:17.183Z,5.60
2023-01-13T00:26:27.783Z,5.18
2023-01-13T00:31:36.469Z,4.95
2023-01-13T00:36:43.067Z,5.03
2023-01-13T00:42:08.509Z,5.05
2023-01-13T00:47:15.086Z,4.93
2023-01-13T00:52:21.659Z,5.72
2023-01-13T00:57:29.633Z,5.85
2023-01-13T01:02:37.285Z,6.28
2023-01-13T01:07:44.315Z,6.28
2023-01-13T01:12:53.025Z,5.22
2023-01-13T01:17:59.405Z,5.70
2023-01-13T01:23:05.910Z,5.50
2023-01-13T01:28:13.711Z,4.85
2023-01-13T01:33:20.815Z,5.78
2023-01-13T01:38:27.885Z,5.10
2023-01-13T01:44:03.873Z,4.78
2023-01-13T01:49:17.740Z,5.05
2023-01-13T01:54:29.203Z,4.38
2023-01-13T01:59:40.024Z,5.25
2023-01-13T02:04:51.954Z,4.55
2023-01-13T02:10:03.107Z,4.97
2023-01-13T02:15:15.016Z,4.55
2023-01-13T02:21:04.180Z,4.53
2023-01-13T02:27:08.764Z,5.00
2023-01-13T02:32:27.798Z,4.28
2023-01-13T02:37:39.462Z,4.03
2023-01-13T02:43:12.251Z,3.97
2023-01-13T02:48:25.915Z,4.43
2023-01-13T02:53:37.798Z,3.75
2023-01-13T02:58:47.435Z,4.18
2023-01-13T03:03:55.125Z,3.42
2023-01-13T03:09:10.379Z,4.15
2023-01-13T03:14:35.103Z,4.20
2023-01-13T03:19:52.279Z,3.58
2023-01-13T03:25:08.818Z,3.78
2023-01-13T03:30:21.153Z,3.75
2023-01-13T03:35:34.369Z,4.10
2023-01-13T03:40:46.069Z,3.53
2023-01-13T03:45:58.265Z,3.92
2023-01-13T03:51:13.322Z,3.58
2023-01-13T03:56:27.509Z,4.07
2023-01-13T04:01:44.158Z,4.03
2023-01-13T04:06:58.121Z,3.50
2023-01-13T04:12:13.949Z,3.92
2023-01-13T04:17:21.280Z,3.15
2023-01-13T04:22:29.137Z,3.30
2023-01-13T04:27:37.016Z,3.03
2023-01-13T04:32:43.341Z,3.75
2023-01-13T04:37:51.249Z,3.28
2023-01-13T04:42:58.168Z,3.10
2023-01-13T04:48:05.565Z,3.35
2023-01-13T04:53:13.697Z,3.20
2023-01-13T04:58:20.046Z,3.60
2023-01-13T05:03:27.121Z,3.85
2023-01-13T05:08:35.222Z,3.67
2023-01-13T05:14:10.106Z,3.60
2023-01-13T05:19:16.355Z,3.88
2023-01-13T05:24:41.390Z,3.90
2023-01-13T05:29:50.498Z,3.08
2023-01-13T05:34:57.332Z,4.88
2023-01-13T05:40:23.496Z,4.13
2023-01-13T05:45:32.145Z,3.45
2023-01-13T05:50:38.648Z,3.05
2023-01-13T05:55:47.311Z,3.67
2023-01-13T06:00:54.760Z,3.00
2023-01-13T06:06:04.517Z,3.40
2023-01-13T06:11:12.976Z,3.30
2023-01-13T06:16:19.734Z,3.40
2023-01-13T06:21:26.393Z,3.83
2023-01-13T06:26:39.034Z,2.83
2023-01-13T06:31:45.985Z,4.00
2023-01-13T06:36:57.141Z,3.08
2023-01-13T06:42:23.752Z,2.83
2023-01-13T06:47:30.255Z,2.97
2023-01-13T06:52:36.481Z,2.65
2023-01-13T06:57:53.797Z,3.63
2023-01-13T07:03:12.569Z,3.13
2023-01-13T07:08:19.085Z,3.22
2023-01-13T07:13:44.328Z,2.78
2023-01-13T07:18:53.685Z,3.10
2023-01-13T07:24:00.457Z,2.60
2023-01-13T07:29:08.697Z,3.53
2023-01-13T07:34:15.453Z,3.67
2023-01-13T07:39:22.019Z,3.45
2023-01-13T07:44:30.063Z,3.17
2023-01-13T07:49:36.272Z,3.70
2023-01-13T07:54:42.617Z,3.00
2023-01-13T07:59:50.372Z,3.13
2023-01-13T08:04:56.738Z,3.20
2023-01-13T08:10:03.314Z,2.63
2023-01-13T08:15:13.053Z,2.78
2023-01-13T08:20:19.625Z,2.22
2023-01-13T08:25:26.666Z,2.65
2023-01-13T08:30:34.820Z,3.13
2023-01-13T08:35:42.485Z,3.53
2023-01-13T08:40:49.114Z,3.60
2023-01-13T08:46:05.002Z,2.60
2023-01-13T08:51:13.042Z,4.70
2023-01-13T08:56:19.734Z,2.85
2023-01-13T09:01:28.424Z,3.00
2023-01-13T09:06:35.191Z,3.30
2023-01-13T09:12:02.406Z,3.65
2023-01-13T09:17:10.615Z,2.75
2023-01-13T09:22:19.611Z,3.60
2023-01-13T09:32:33.586Z,3.70
2023-01-13T09:37:42.898Z,2.70
2023-01-13T09:43:13.534Z,2.70
2023-01-13T09:48:28.563Z,2.47
2023-01-13T09:53:49.800Z,2.53
2023-01-13T09:58:56.375Z,2.50
2023-01-13T10:04:11.836Z,3.58
2023-01-13T10:09:24.591Z,2.67
2023-01-13T10:14:43.023Z,2.63
2023-01-13T10:19:58.278Z,2.70
2023-01-13T10:25:22.407Z,3.05
2023-01-13T10:30:37.996Z,3.03
2023-01-13T10:35:56.856Z,2.35
2023-01-13T10:41:07.839Z,2.80
2023-01-13T10:46:17.062Z,2.53
2023-01-13T10:56:35.880Z,2.70
2023-01-13T11:01:45.385Z,2.70
2023-01-13T11:06:53.352Z,3.15
2023-01-13T11:12:00.856Z,3.35
2023-01-13T11:17:40.877Z,3.30
2023-01-13T11:22:51.676Z,3.40
2023-01-13T11:28:04.913Z,3.20
2023-01-13T11:33:33.856Z,2.60
2023-01-13T11:38:49.710Z,3.38
2023-01-13T11:44:05.876Z,2.35
2023-01-13T11:49:22.333Z,2.83
2023-01-13T11:54:52.663Z,3.30
2023-01-13T12:00:24.931Z,3.05
2023-01-13T12:05:38.472Z,4.57
2023-01-13T12:11:03.694Z,3.15
2023-01-13T12:16:24.972Z,3.53
2023-01-13T12:21:35.561Z,2.80
2023-01-13T12:26:50.630Z,2.92
2023-01-13T12:31:57.384Z,2.83
2023-01-13T12:37:13.842Z,3.15
2023-01-13T12:42:46.628Z,2.40
2023-01-13T12:47:53.182Z,3.10
2023-01-13T12:53:01.246Z,2.88
2023-01-13T12:58:30.220Z,3.65
2023-01-13T13:03:39.258Z,2.90
2023-01-13T13:14:39.873Z,4.32
2023-01-13T13:19:49.746Z,5.70
2023-01-13T13:25:26.777Z,4.68
2023-01-13T13:30:40.474Z,3.60
2023-01-13T13:36:15.561Z,3.15
2023-01-13T13:41:42.461Z,3.30
2023-01-13T13:46:51.128Z,2.90
2023-01-13T13:52:05.254Z,2.83
2023-01-13T13:57:21.859Z,3.10
2023-01-13T14:02:33.455Z,3.15
2023-01-13T14:07:51.241Z,2.53
2023-01-13T14:12:58.160Z,2.30
2023-01-13T14:18:14.061Z,3.15
2023-01-13T14:23:28.208Z,3.42
2023-01-13T14:28:39.729Z,3.40
2023-01-13T14:33:50.636Z,3.40
2023-01-13T14:39:35.572Z,3.03
2023-01-13T14:44:47.403Z,2.47
2023-01-13T14:50:03.285Z,2.35
2023-01-13T14:55:30.053Z,2.90
2023-01-13T15:00:36.923Z,2.70
2023-01-13T15:05:49.732Z,2.70
2023-01-13T15:11:01.228Z,2.65
2023-01-13T15:16:16.490Z,3.58
2023-01-13T15:21:25.367Z,5.43
2023-01-13T15:26:35.290Z,5.15
2023-01-13T15:31:41.844Z,4.75
2023-01-13T15:36:49.944Z,4.72
2023-01-13T15:42:21.993Z,4.45
2023-01-13T15:47:29.917Z,4.30
2023-01-13T15:52:37.980Z,4.13
2023-01-13T15:57:50.375Z,3.83
2023-01-13T16:02:56.945Z,4.15
2023-01-13T16:08:06.177Z,4.20
2023-01-13T16:13:12.684Z,4.32
2023-01-13T16:18:24.580Z,3.97
2023-01-13T16:23:34.141Z,3.42
2023-01-13T16:28:41.082Z,3.17
2023-01-13T16:33:47.759Z,3.97
2023-01-13T16:38:56.552Z,4.72
2023-01-13T16:44:06.335Z,5.10
2023-01-13T16:49:18.987Z,5.35
2023-01-13T16:54:27.150Z,8.88
2023-01-13T16:59:33.677Z,3.65
2023-01-13T17:04:40.440Z,4.20
2023-01-13T17:09:48.688Z,3.85
2023-01-13T17:14:55.795Z,4.10
2023-01-13T17:20:02.570Z,4.15
2023-01-13T17:25:14.381Z,4.55
2023-01-13T17:30:21.791Z,4.22
2023-01-13T17:35:30.262Z,4.22
2023-01-13T17:40:42.742Z,3.97
2023-01-13T17:45:51.147Z,3.63
2023-01-13T17:50:59.935Z,3.50
2023-01-13T17:56:15.647Z,4.63
2023-01-13T18:01:27.141Z,4.70
2023-01-13T18:06:37.217Z,4.43
2023-01-13T18:11:49.102Z,3.03
2023-01-13T18:16:57.329Z,3.25
2023-01-13T18:22:23.346Z,4.07
2023-01-13T18:27:35.474Z,4.03
2023-01-13T18:32:44.707Z,4.60
2023-01-13T18:37:53.762Z,3.05
2023-01-13T18:43:02.696Z,3.33
2023-01-13T18:48:11.286Z,3.58
2023-01-13T18:58:31.198Z,4.00
2023-01-13T19:03:39.269Z,5.05
2023-01-13T19:08:48.914Z,5.23
2023-01-13T19:13:58.480Z,4.28
2023-01-13T19:19:07.024Z,3.42
2023-01-13T19:24:15.511Z,3.88
2023-01-13T19:29:24.486Z,4.13
2023-01-13T19:34:32.466Z,3.63
2023-01-13T19:39:42.261Z,4.30
2023-01-13T19:45:09.460Z,4.40
2023-01-13T19:50:17.664Z,3.72
2023-01-13T19:55:25.485Z,3.77
2023-01-13T20:00:37.384Z,4.95
2023-01-13T20:05:45.915Z,5.25
2023-01-13T20:11:15.824Z,4.40
2023-01-13T20:16:27.191Z,4.20
2023-01-13T20:21:38.403Z,3.30
2023-01-13T20:26:55.174Z,3.50
2023-01-13T20:32:04.860Z,2.85
2023-01-13T20:37:13.389Z,3.00
2023-01-13T20:42:43.452Z,3.05
2023-01-13T20:48:00.568Z,3.42
2023-01-13T20:53:08.521Z,2.90
2023-01-13T20:58:16.052Z,2.67
2023-01-13T21:03:25.881Z,3.08
2023-01-13T21:08:33.909Z,2.38
2023-01-13T21:13:58.036Z,3.05
2023-01-13T21:19:10.929Z,3.03
2023-01-13T21:24:19.232Z,2.70
2023-01-13T21:29:27.145Z,3.00
2023-01-13T21:34:36.210Z,4.15
2023-01-13T21:45:08.022Z,2.92
2023-01-13T21:50:18.108Z,3.08
2023-01-13T21:55:28.872Z,3.75
2023-01-13T22:00:36.080Z,3.08
2023-01-13T22:05:44.619Z,2.80
2023-01-13T22:10:58.709Z,3.22
2023-01-13T22:16:06.800Z,3.03
2023-01-13T22:21:15.481Z,3.33
2023-01-13T22:26:22.540Z,2.88
2023-01-13T22:31:31.850Z,3.35
2023-01-13T22:36:40.775Z,2.67
2023-01-13T22:41:47.767Z,2.85
2023-01-13T22:46:54.927Z,3.35
2023-01-13T22:52:03.597Z,2.95
2023-01-13T22:57:10.543Z,3.13
2023-01-13T23:02:17.355Z,3.50
2023-01-13T23:07:25.939Z,3.50
2023-01-13T23:12:32.849Z,4.10
2023-01-13T23:17:40.793Z,3.90
2023-01-13T23:22:50.759Z,4.00
2023-01-13T23:27:57.757Z,5.57
2023-01-13T23:33:05.904Z,4.13
2023-01-13T23:38:14.409Z,3.27
2023-01-13T23:43:22.583Z,3.15
2023-01-13T23:48:29.599Z,3.55
2023-01-13T23:53:40.354Z,2.92
2023-01-13T23:58:47.999Z,2.97
